WetterOnline ( https://www.wetteronline.de )

Wetter aktuell Schweinfurt

Aktuelles Wetter: Bad Kissingen (266m)

6-stündlich | Neueste Meldungen
Ortszeit Temperatur Wetter
Sa, 29.01. 1:00 2.6° C bedeckt
Fr, 28.01. 19:00 3.4° C wolkig
Fr, 28.01. 13:00 4.3° C bedeckt
Fr, 28.01. 7:00 2.6° C bedeckt
Fr, 28.01. 1:00 3.6° C bedeckt
Do, 27.01. 19:00 1.6° C leichter Schneeregen
Do, 27.01. 13:00 1.1° C bedeckt
Do, 27.01. 7:00 -0.7° C bedeckt
Ortszeit Temperatur Wetter
Sa, 29.01. 3:30 3.4° C bedeckt
Sa, 29.01. 3:20 3.4° C bedeckt
Sa, 29.01. 3:10 3.3° C bedeckt
Sa, 29.01. 3:00 3.2° C bedeckt
Sa, 29.01. 2:50 3.2° C bedeckt
Sa, 29.01. 2:40 3.1° C bedeckt
Sa, 29.01. 2:30 3.1° C bedeckt
Sa, 29.01. 2:00 2.9° C bedeckt
Sa, 29.01. 1:30 2.6° C bedeckt
Sa, 29.01. 1:00 2.6° C bedeckt
Sa, 29.01. 0:30 2.5° C bedeckt
Ortszeit Relative Feuchte Sichtweite
Sa, 29.01. 1:00 81% 30 km
Fr, 28.01. 19:00 70% 35 km
Fr, 28.01. 13:00 70% 35 km
Fr, 28.01. 7:00 82% 55 km
Fr, 28.01. 1:00 85% 60 km
Do, 27.01. 19:00 93% 3.8 km
Do, 27.01. 13:00 88% 4.4 km
Do, 27.01. 7:00 86% 12 km
Ortszeit Relative Feuchte Sichtweite
Sa, 29.01. 3:30 84% 24 km
Sa, 29.01. 3:20 84% -
Sa, 29.01. 3:10 84% -
Sa, 29.01. 3:00 84% 21 km
Sa, 29.01. 2:50 84% -
Sa, 29.01. 2:40 84% -
Sa, 29.01. 2:30 84% 25 km
Sa, 29.01. 2:00 84% 28 km
Sa, 29.01. 1:30 83% 29 km
Sa, 29.01. 1:00 81% 30 km
Sa, 29.01. 0:30 78% 35 km
Ortszeit Niederschlagsmenge Niederschlagsart
Sa, 29.01. 1:00 0.0 l/m2 in 6 Std. -
Fr, 28.01. 19:00 0.0 l/m2 in 12 Std. -
Fr, 28.01. 13:00 0.0 l/m2 in 6 Std. -
Fr, 28.01. 7:00 2 l/m2 in 12 Std. Regen
Fr, 28.01. 1:00 2 l/m2 in 6 Std. Schnee, Regen
Do, 27.01. 19:00 0.1 l/m2 in 12 Std. Schnee, Regen
Do, 27.01. 13:00 0.0 l/m2 in 6 Std. -
Do, 27.01. 7:00 0.0 l/m2 in 12 Std. -
Ortszeit Niederschlagsmenge Niederschlagsart
Sa, 29.01. 3:30 0.0 l/m2 in 1 Std. -
Sa, 29.01. 3:20 keine Meldung -
Sa, 29.01. 3:10 keine Meldung -
Sa, 29.01. 3:00 0.0 l/m2 in 1 Std. -
Sa, 29.01. 2:50 keine Meldung -
Sa, 29.01. 2:40 keine Meldung -
Sa, 29.01. 2:30 0.0 l/m2 in 1 Std. -
Sa, 29.01. 2:00 0.0 l/m2 in 1 Std. -
Sa, 29.01. 1:30 0.0 l/m2 in 1 Std. -
Sa, 29.01. 1:00 0.0 l/m2 in 1 Std. -
Sa, 29.01. 0:30 0.0 l/m2 in 1 Std. -
Ortszeit Stärke Spitze Richtung
km/h Bft. km/h Grad Sektor
Sa, 29.01. 1:00 17 3 24 200° S
Fr, 28.01. 19:00 11 2 40 210° SW
Fr, 28.01. 13:00 22 4 36 300° NW
Fr, 28.01. 7:00 17 3 46 250° W
Fr, 28.01. 1:00 14 3 32 250° W
Do, 27.01. 19:00 18 3 40 200° S
Do, 27.01. 13:00 20 4 39 220° SW
Do, 27.01. 7:00 22 4 36 240° SW
Ortszeit Stärke Spitze Richtung
km/h Bft. km/h Grad Sektor
Sa, 29.01. 3:30 13 3 26 220° SW
Sa, 29.01. 3:20 13 3 - 220° SW
Sa, 29.01. 3:10 13 3 - 220° SW
Sa, 29.01. 3:00 15 3 20 200° S
Sa, 29.01. 2:50 15 3 - 200° S
Sa, 29.01. 2:40 15 3 - 190° S
Sa, 29.01. 2:30 11 2 20 210° SW
Sa, 29.01. 2:00 7 2 24 220° SW
Sa, 29.01. 1:30 14 3 25 200° S
Sa, 29.01. 1:00 17 3 24 200° S
Sa, 29.01. 0:30 14 3 25 190° S
Ortszeit Untergrenze Bedeckung Gattung
total tief tief mittel hoch
Sa, 29.01. 1:00 420 m 8/8 8/8 - - -
Fr, 28.01. 19:00 1260 m 8/8 1/8 - - -
Fr, 28.01. 13:00 1230 m 8/8 8/8 - - -
Fr, 28.01. 7:00 660 m 8/8 8/8 - - -
Fr, 28.01. 1:00 480 m 8/8 8/8 - - -
Do, 27.01. 19:00 180 m 8/8 8/8 - - -
Do, 27.01. 13:00 270 m 8/8 8/8 - - -
Do, 27.01. 7:00 270 m 8/8 8/8 - - -
Ortszeit Bedeckungsgrad in Achtel und Wolkenuntergrenze
Sa, 29.01. 3:30 8(390m)
Sa, 29.01. 3:20 8(390m)
Sa, 29.01. 3:10 8
Sa, 29.01. 3:00 8(420m)
Sa, 29.01. 2:50 8(420m)
Sa, 29.01. 2:40 8
Sa, 29.01. 2:30 8(420m)
Sa, 29.01. 2:00 8(360m)
Sa, 29.01. 1:30 8(360m)
Sa, 29.01. 1:00 8(420m)
Sa, 29.01. 0:30 7(450m) 8(2700m) 8(3900m)
Ortszeit Luftdruck NN (hPa) Tendenz (hPa in 3 Std.)
Sa, 29.01. 1:00 1033 - 1,6
Fr, 28.01. 19:00 1035 + 1,4
Fr, 28.01. 13:00 1033 + 1,1
Fr, 28.01. 7:00 1030 + 2,2
Fr, 28.01. 1:00 1026 + 1,7
Do, 27.01. 19:00 1024 - 0,4
Do, 27.01. 13:00 1026 - 1,2
Do, 27.01. 7:00 1029 - 1,0
Ortszeit Luftdruck NN (hPa) Tendenz (hPa in 3 Std.)
Sa, 29.01. 3:30 1031 - 2,3
Sa, 29.01. 3:20 1031 keine Meldung
Sa, 29.01. 3:10 1031 keine Meldung
Sa, 29.01. 3:00 1031 - 2,1
Sa, 29.01. 2:50 1031 keine Meldung
Sa, 29.01. 2:40 1032 keine Meldung
Sa, 29.01. 2:30 1032 - 1,8
Sa, 29.01. 2:00 1033 - 1,1
Sa, 29.01. 1:30 1033 - 1,6
Sa, 29.01. 1:00 1033 - 1,6
Sa, 29.01. 0:30 1033 - 1,3
Ortszeit Schneehöhe (cm)
Sa, 29.01. 1:00 0
Fr, 28.01. 19:00 0
Fr, 28.01. 13:00 0
Fr, 28.01. 7:00 0
Fr, 28.01. 1:00 0
Do, 27.01. 19:00 0
Do, 27.01. 13:00 0
Do, 27.01. 7:00 0
Ortszeit Schneehöhe (cm)
Sa, 29.01. 3:30 0
Sa, 29.01. 3:20 0
Sa, 29.01. 3:10 0
Sa, 29.01. 3:00 0
Sa, 29.01. 2:50 0
Sa, 29.01. 2:40 0
Sa, 29.01. 2:30 0
Sa, 29.01. 2:00 0
Sa, 29.01. 1:30 0
Sa, 29.01. 1:00 0
Sa, 29.01. 0:30 0
Link zu dieser Seite / Seite empfehlen

Das Wetter in ...